createdAt,value
2023-03-18T00:01:35.664Z,20.10
2023-03-18T00:04:07.907Z,20.50
2023-03-18T00:06:36.562Z,18.80
2023-03-18T00:09:12.585Z,20.90
2023-03-18T00:11:42.174Z,20.30
2023-03-18T00:14:11.380Z,21.40
2023-03-18T00:16:42.773Z,24.20
2023-03-18T00:19:11.593Z,26.00
2023-03-18T00:21:39.836Z,22.90
2023-03-18T00:24:09.825Z,26.10
2023-03-18T00:26:38.728Z,21.70
2023-03-18T00:29:07.877Z,24.90
2023-03-18T00:31:38.484Z,26.20
2023-03-18T00:34:06.658Z,27.90
2023-03-18T00:36:34.898Z,24.70
2023-03-18T00:39:07.562Z,25.50
2023-03-18T00:41:38.147Z,27.60
2023-03-18T00:44:07.671Z,30.20
2023-03-18T00:46:37.670Z,37.40
2023-03-18T00:49:07.518Z,42.70
2023-03-18T00:51:37.544Z,41.50
2023-03-18T00:54:12.507Z,53.10
2023-03-18T00:56:41.600Z,47.20
2023-03-18T00:59:10.549Z,100.50
2023-03-18T01:01:41.876Z,85.40
2023-03-18T01:04:10.855Z,76.90
2023-03-18T01:06:45.479Z,67.60
2023-03-18T01:09:14.563Z,60.10
2023-03-18T01:11:42.872Z,43.90
2023-03-18T01:14:11.122Z,43.20
2023-03-18T01:16:45.070Z,40.50
2023-03-18T01:19:14.198Z,34.00
2023-03-18T01:21:42.310Z,32.50
2023-03-18T01:24:11.564Z,28.90
2023-03-18T01:26:39.793Z,27.40
2023-03-18T01:29:08.166Z,28.80
2023-03-18T01:31:37.995Z,27.60
2023-03-18T01:34:10.507Z,31.00
2023-03-18T01:36:45.060Z,31.20
2023-03-18T01:39:14.586Z,29.30
2023-03-18T01:41:44.795Z,25.50
2023-03-18T01:44:19.339Z,26.30
2023-03-18T01:46:50.123Z,24.20
2023-03-18T01:49:25.262Z,19.40
2023-03-18T01:52:23.016Z,21.20
2023-03-18T01:54:55.860Z,24.50
2023-03-18T01:57:25.088Z,21.70
2023-03-18T01:59:53.915Z,24.60
2023-03-18T02:02:22.029Z,24.20
2023-03-18T02:04:53.810Z,20.40
2023-03-18T02:07:25.355Z,22.80
2023-03-18T02:09:54.223Z,20.00
2023-03-18T02:12:25.975Z,24.80
2023-03-18T02:14:57.054Z,24.90
2023-03-18T02:17:30.362Z,39.40
2023-03-18T02:20:49.511Z,22.70
2023-03-18T02:23:43.045Z,56.50
2023-03-18T02:26:14.324Z,64.30
2023-03-18T02:28:42.402Z,72.70
2023-03-18T02:31:12.297Z,86.10
2023-03-18T02:33:42.057Z,71.60
2023-03-18T02:36:12.762Z,50.90
2023-03-18T02:38:43.315Z,41.30
2023-03-18T02:41:21.529Z,34.80
2023-03-18T02:43:51.421Z,41.20
2023-03-18T02:46:51.075Z,34.00
2023-03-18T02:49:20.056Z,34.80
2023-03-18T02:51:49.439Z,32.60
2023-03-18T02:54:21.738Z,28.30
2023-03-18T02:56:51.523Z,26.50
2023-03-18T02:59:25.681Z,33.90
2023-03-18T03:01:54.017Z,29.40
2023-03-18T03:04:23.785Z,28.80
2023-03-18T03:09:26.579Z,26.70
2023-03-18T03:11:54.912Z,23.90
2023-03-18T03:14:23.857Z,21.70
2023-03-18T03:16:54.561Z,23.10
2023-03-18T03:21:52.544Z,20.00
2023-03-18T03:24:20.590Z,20.10
2023-03-18T03:26:49.485Z,22.50
2023-03-18T03:29:17.877Z,18.70
2023-03-18T03:31:46.569Z,25.80
2023-03-18T03:34:15.487Z,20.50
2023-03-18T03:36:44.790Z,20.20
2023-03-18T03:39:13.050Z,16.40
2023-03-18T03:41:41.542Z,22.70
2023-03-18T03:44:09.827Z,18.40
2023-03-18T03:46:39.526Z,19.10
2023-03-18T03:49:07.689Z,21.40
2023-03-18T03:51:37.660Z,17.70
2023-03-18T03:54:05.913Z,17.10
2023-03-18T03:56:36.938Z,17.60
2023-03-18T03:59:05.310Z,16.40
2023-03-18T04:01:57.241Z,19.50
2023-03-18T04:04:25.668Z,19.50
2023-03-18T04:06:53.729Z,16.90
2023-03-18T04:09:23.099Z,19.70
2023-03-18T04:11:52.300Z,20.20
2023-03-18T04:14:20.996Z,18.40
2023-03-18T04:16:49.063Z,21.50
2023-03-18T04:19:17.773Z,20.20
2023-03-18T04:21:46.333Z,21.30
2023-03-18T04:24:14.714Z,18.90
2023-03-18T04:26:43.450Z,23.80
2023-03-18T04:29:11.558Z,27.40
2023-03-18T04:31:40.104Z,39.20
2023-03-18T04:34:09.817Z,44.90
2023-03-18T04:36:38.146Z,48.60
2023-03-18T04:39:07.037Z,70.00
2023-03-18T04:41:39.004Z,49.50
2023-03-18T04:44:07.488Z,49.20
2023-03-18T04:46:41.519Z,30.70
2023-03-18T04:49:10.692Z,43.40
2023-03-18T04:51:39.571Z,21.40
2023-03-18T04:54:12.592Z,22.90
2023-03-18T04:56:43.774Z,27.80
2023-03-18T04:59:14.080Z,21.30
2023-03-18T05:01:43.747Z,29.30
2023-03-18T05:04:13.018Z,20.60
2023-03-18T05:06:47.898Z,16.60
2023-03-18T05:09:16.277Z,16.00
2023-03-18T05:11:45.374Z,22.00
2023-03-18T05:14:22.667Z,23.60
2023-03-18T05:16:51.121Z,20.30
2023-03-18T05:19:20.591Z,25.00
2023-03-18T05:21:55.694Z,23.70
2023-03-18T05:24:24.275Z,19.90
2023-03-18T05:26:52.372Z,17.00
2023-03-18T05:29:22.367Z,15.20
2023-03-18T05:32:11.596Z,20.80
2023-03-18T05:34:46.371Z,22.40
2023-03-18T05:37:15.565Z,29.10
2023-03-18T05:39:47.838Z,18.40
2023-03-18T05:44:57.053Z,19.10
2023-03-18T05:47:26.292Z,16.90
2023-03-18T05:50:08.051Z,16.80
2023-03-18T05:52:38.514Z,15.30
2023-03-18T05:55:16.689Z,15.90
2023-03-18T05:57:46.905Z,15.50
2023-03-18T06:00:15.957Z,15.40
2023-03-18T06:02:45.202Z,16.60
2023-03-18T06:05:14.320Z,16.00
2023-03-18T06:07:43.165Z,20.40
2023-03-18T06:10:13.270Z,17.90
2023-03-18T06:12:42.562Z,18.00
2023-03-18T06:15:12.354Z,11.80
2023-03-18T06:20:12.123Z,13.50
2023-03-18T06:22:40.905Z,15.40
2023-03-18T06:27:41.318Z,14.60
2023-03-18T06:30:25.291Z,11.90
2023-03-18T06:32:57.532Z,11.40
2023-03-18T06:35:32.791Z,10.90
2023-03-18T06:38:03.030Z,11.30
2023-03-18T06:43:01.480Z,15.00
2023-03-18T06:45:37.529Z,10.90
2023-03-18T06:48:08.560Z,9.20
2023-03-18T06:50:39.832Z,9.50
2023-03-18T06:53:12.996Z,12.10
2023-03-18T06:55:41.759Z,9.20
2023-03-18T06:58:10.756Z,9.30
2023-03-18T07:00:49.973Z,9.10
2023-03-18T07:03:23.290Z,11.60
2023-03-18T07:05:54.737Z,11.50
2023-03-18T07:08:24.866Z,13.10
2023-03-18T07:10:56.277Z,10.00
2023-03-18T07:13:27.170Z,11.30
2023-03-18T07:16:00.481Z,10.70
2023-03-18T07:18:29.340Z,10.10
2023-03-18T07:21:04.616Z,9.40
2023-03-18T07:23:34.537Z,11.10
2023-03-18T07:26:02.879Z,11.50
2023-03-18T07:28:33.305Z,12.80
2023-03-18T07:31:01.902Z,13.10
2023-03-18T07:33:34.711Z,10.10
2023-03-18T07:36:03.297Z,15.00
2023-03-18T07:38:35.197Z,15.00
2023-03-18T07:41:03.574Z,15.20
2023-03-18T07:43:31.891Z,13.40
2023-03-18T07:46:06.756Z,12.10
2023-03-18T07:48:34.917Z,13.80
2023-03-18T07:51:03.473Z,20.50
2023-03-18T07:53:33.837Z,14.70
2023-03-18T07:56:02.237Z,13.30
2023-03-18T07:58:31.803Z,21.80
2023-03-18T08:01:00.435Z,27.40
2023-03-18T08:03:28.856Z,31.50
2023-03-18T08:05:57.446Z,33.60
2023-03-18T08:08:26.274Z,24.00
2023-03-18T08:11:00.576Z,14.20
2023-03-18T08:13:30.272Z,15.10
2023-03-18T08:15:58.985Z,13.50
2023-03-18T08:18:29.586Z,13.60
2023-03-18T08:20:59.094Z,10.30
2023-03-18T08:23:27.282Z,10.30
2023-03-18T08:25:55.857Z,12.60
2023-03-18T08:28:26.002Z,12.00
2023-03-18T08:33:27.108Z,17.20
2023-03-18T08:35:56.380Z,10.60
2023-03-18T08:38:25.128Z,15.40
2023-03-18T08:40:53.728Z,14.60
2023-03-18T08:43:25.972Z,20.30
2023-03-18T08:45:54.424Z,15.10
2023-03-18T08:48:23.130Z,13.40
2023-03-18T08:50:52.958Z,15.20
2023-03-18T08:53:22.477Z,18.30
2023-03-18T08:55:50.747Z,13.00
2023-03-18T08:58:20.263Z,12.00
2023-03-18T09:00:50.256Z,16.00
2023-03-18T09:05:50.597Z,19.90
2023-03-18T09:08:18.956Z,16.50
2023-03-18T09:10:47.103Z,23.50
2023-03-18T09:13:15.608Z,24.00
2023-03-18T09:15:48.046Z,17.30
2023-03-18T09:18:18.424Z,11.00
2023-03-18T09:20:46.671Z,14.00
2023-03-18T09:23:21.477Z,14.50
2023-03-18T09:25:51.720Z,17.30
2023-03-18T09:28:19.803Z,12.40
2023-03-18T09:30:48.693Z,12.20
2023-03-18T09:33:16.825Z,9.50
2023-03-18T09:35:48.779Z,12.60
2023-03-18T09:38:20.017Z,12.80
2023-03-18T09:41:18.619Z,19.10
2023-03-18T09:43:59.345Z,13.00
2023-03-18T09:46:27.479Z,16.80
2023-03-18T09:49:11.499Z,13.30
2023-03-18T09:52:14.504Z,12.80
2023-03-18T09:54:54.501Z,10.30
2023-03-18T09:57:36.945Z,10.40
2023-03-18T10:00:28.899Z,11.80
2023-03-18T10:03:06.491Z,11.00
2023-03-18T10:05:49.142Z,13.40
2023-03-18T10:08:21.474Z,11.80
2023-03-18T10:10:49.699Z,11.40
2023-03-18T10:13:25.678Z,12.10
2023-03-18T10:15:56.921Z,11.50
2023-03-18T10:18:31.335Z,13.10
2023-03-18T10:21:07.222Z,11.80
2023-03-18T10:23:49.928Z,12.10
2023-03-18T10:26:54.006Z,8.60
2023-03-18T10:29:51.235Z,9.70
2023-03-18T10:32:49.167Z,12.40
2023-03-18T10:35:40.111Z,16.60
2023-03-18T10:38:23.237Z,23.20
2023-03-18T10:40:51.422Z,10.80
2023-03-18T10:43:25.292Z,12.60
2023-03-18T10:46:02.654Z,9.60
2023-03-18T10:48:36.163Z,9.30
2023-03-18T10:51:33.189Z,13.90
2023-03-18T10:54:11.290Z,15.20
2023-03-18T10:56:41.473Z,7.90
2023-03-18T10:59:16.369Z,11.60
2023-03-18T11:01:47.098Z,10.40
2023-03-18T11:04:17.519Z,11.30
2023-03-18T11:06:53.349Z,9.70
2023-03-18T11:09:23.478Z,8.70
2023-03-18T11:11:56.875Z,8.90
2023-03-18T11:14:29.980Z,11.40
2023-03-18T11:16:58.150Z,11.30
2023-03-18T11:19:33.566Z,15.70
2023-03-18T11:22:06.957Z,20.40
2023-03-18T11:24:44.926Z,15.50
2023-03-18T11:27:16.838Z,17.40
2023-03-18T11:29:50.712Z,15.40
2023-03-18T11:32:29.382Z,8.70
2023-03-18T11:35:01.108Z,9.60
2023-03-18T11:37:37.672Z,9.80
2023-03-18T11:40:28.156Z,14.40
2023-03-18T11:43:00.375Z,11.10
2023-03-18T11:45:35.046Z,10.80
2023-03-18T11:48:10.242Z,17.50
2023-03-18T11:51:10.983Z,18.60
2023-03-18T11:53:48.858Z,17.30
2023-03-18T11:56:41.387Z,9.70
2023-03-18T11:59:29.056Z,11.70
2023-03-18T12:02:12.734Z,16.70
2023-03-18T12:05:10.973Z,14.80
2023-03-18T12:08:01.701Z,10.90
2023-03-18T12:10:30.036Z,13.70
2023-03-18T12:13:28.047Z,15.50
2023-03-18T12:16:22.158Z,13.50
2023-03-18T12:19:09.152Z,13.00
2023-03-18T12:22:09.457Z,11.60
2023-03-18T12:24:54.776Z,9.20
2023-03-18T12:27:43.360Z,12.00
2023-03-18T12:30:11.797Z,12.90
2023-03-18T12:33:06.693Z,12.70
2023-03-18T12:35:53.523Z,15.10
2023-03-18T12:38:40.968Z,17.30
2023-03-18T12:41:36.984Z,11.20
2023-03-18T12:44:14.104Z,10.00
2023-03-18T12:49:44.964Z,7.60
2023-03-18T12:52:40.330Z,10.40
2023-03-18T12:55:21.847Z,9.70
2023-03-18T12:57:56.244Z,8.40
2023-03-18T13:00:32.084Z,6.20
2023-03-18T13:03:23.620Z,10.80
2023-03-18T13:05:53.807Z,8.90
2023-03-18T13:09:01.114Z,11.20
2023-03-18T13:11:29.877Z,9.10
2023-03-18T13:14:05.588Z,14.60
2023-03-18T13:16:34.048Z,15.30
2023-03-18T13:19:04.594Z,11.30
2023-03-18T13:21:36.237Z,13.40
2023-03-18T13:24:32.895Z,10.50
2023-03-18T13:27:22.041Z,12.20
2023-03-18T13:29:52.960Z,6.90
2023-03-18T13:32:35.451Z,10.40
2023-03-18T13:35:16.804Z,7.30
2023-03-18T13:37:57.714Z,7.50
2023-03-18T13:40:52.548Z,8.00
2023-03-18T13:43:22.960Z,6.40
2023-03-18T13:45:52.828Z,8.80
2023-03-18T13:48:24.869Z,8.20
2023-03-18T13:50:53.069Z,8.20
2023-03-18T13:53:32.080Z,9.80
2023-03-18T13:56:03.237Z,8.10
2023-03-18T13:58:45.613Z,10.00
2023-03-18T14:01:34.006Z,10.00
2023-03-18T14:04:20.580Z,7.60
2023-03-18T14:07:15.504Z,13.00
2023-03-18T14:09:57.135Z,11.60
2023-03-18T14:12:37.132Z,12.50
2023-03-18T14:15:10.446Z,7.20
2023-03-18T14:17:38.695Z,8.90
2023-03-18T14:20:22.496Z,9.30
2023-03-18T14:23:17.988Z,8.60
2023-03-18T14:25:49.176Z,10.20
2023-03-18T14:28:19.603Z,9.90
2023-03-18T14:31:14.957Z,11.10
2023-03-18T14:34:03.410Z,18.50
2023-03-18T14:36:55.621Z,9.40
2023-03-18T14:39:38.266Z,11.60
2023-03-18T14:42:44.539Z,10.70
2023-03-18T14:45:36.248Z,8.00
2023-03-18T14:48:21.685Z,9.10
2023-03-18T14:50:51.137Z,9.40
2023-03-18T14:53:34.576Z,11.60
2023-03-18T14:56:02.928Z,10.00
2023-03-18T14:58:30.995Z,10.60
2023-03-18T15:01:11.036Z,9.20
2023-03-18T15:03:44.940Z,8.00
2023-03-18T15:06:23.240Z,10.10
2023-03-18T15:09:09.773Z,13.00
2023-03-18T15:11:44.563Z,9.60
2023-03-18T15:14:23.042Z,8.80
2023-03-18T15:17:04.108Z,8.40
2023-03-18T15:19:34.545Z,9.60
2023-03-18T15:22:06.359Z,9.50
2023-03-18T15:24:34.410Z,8.70
2023-03-18T15:27:11.032Z,7.80
2023-03-18T15:30:00.965Z,10.60
2023-03-18T15:32:49.952Z,13.10
2023-03-18T15:35:26.673Z,12.10
2023-03-18T15:38:12.429Z,9.60
2023-03-18T15:40:50.408Z,13.80
2023-03-18T15:43:32.854Z,16.70
2023-03-18T15:46:05.208Z,27.70
2023-03-18T15:48:38.551Z,18.70
2023-03-18T15:51:22.672Z,26.10
2023-03-18T15:53:56.847Z,39.10
2023-03-18T15:56:30.330Z,16.70
2023-03-18T15:59:19.676Z,14.50
2023-03-18T16:01:47.764Z,12.60
2023-03-18T16:04:17.204Z,14.80
2023-03-18T16:06:45.524Z,16.40
2023-03-18T16:09:18.918Z,18.40
2023-03-18T16:12:27.469Z,15.20
2023-03-18T16:14:56.143Z,13.90
2023-03-18T16:17:24.918Z,28.50
2023-03-18T16:19:57.563Z,13.90
2023-03-18T16:22:26.511Z,12.10
2023-03-18T16:24:54.842Z,14.30
2023-03-18T16:27:29.374Z,17.30
2023-03-18T16:30:01.024Z,15.70
2023-03-18T16:32:31.043Z,17.60
2023-03-18T16:34:59.440Z,14.60
2023-03-18T16:37:27.880Z,14.80
2023-03-18T16:40:00.856Z,21.50
2023-03-18T16:42:30.631Z,25.00
2023-03-18T16:44:58.777Z,39.80
2023-03-18T16:47:27.366Z,57.70
2023-03-18T16:49:59.676Z,24.50
2023-03-18T16:52:28.739Z,32.60
2023-03-18T16:54:58.105Z,24.20
2023-03-18T16:57:32.895Z,23.00
2023-03-18T17:00:06.518Z,20.90
2023-03-18T17:02:38.332Z,18.60
2023-03-18T17:05:08.509Z,18.10
2023-03-18T17:07:37.945Z,15.60
2023-03-18T17:10:09.003Z,20.90
2023-03-18T17:12:37.519Z,20.80
2023-03-18T17:15:09.849Z,16.30
2023-03-18T17:17:39.311Z,19.00
2023-03-18T17:20:16.965Z,19.40
2023-03-18T17:22:46.064Z,38.20
2023-03-18T17:25:14.759Z,32.40
2023-03-18T17:28:03.676Z,21.20
2023-03-18T17:30:36.210Z,26.70
2023-03-18T17:33:18.254Z,23.70
2023-03-18T17:35:46.885Z,42.50
2023-03-18T17:38:15.679Z,27.40
2023-03-18T17:40:44.450Z,23.70
2023-03-18T17:43:22.582Z,24.80
2023-03-18T17:45:55.243Z,32.80
2023-03-18T17:48:28.391Z,23.60
2023-03-18T17:51:17.795Z,32.70
2023-03-18T17:53:56.852Z,21.70
2023-03-18T17:56:25.998Z,26.30
2023-03-18T17:58:56.660Z,35.20
2023-03-18T18:01:29.221Z,27.60
2023-03-18T18:03:58.608Z,21.50
2023-03-18T18:06:31.033Z,24.50
2023-03-18T18:09:00.720Z,233.60
2023-03-18T18:11:39.153Z,53.10
2023-03-18T18:14:24.732Z,31.00
2023-03-18T18:16:56.227Z,23.50
2023-03-18T18:19:25.191Z,26.20
2023-03-18T18:21:53.402Z,24.60
2023-03-18T18:24:31.039Z,30.60
2023-03-18T18:27:00.609Z,35.30
2023-03-18T18:29:34.940Z,30.70
2023-03-18T18:32:04.942Z,26.30
2023-03-18T18:34:33.060Z,29.10
2023-03-18T18:37:01.176Z,38.70
2023-03-18T18:39:29.462Z,31.40
2023-03-18T18:44:38.588Z,39.90
2023-03-18T18:47:19.162Z,39.40
2023-03-18T18:49:52.443Z,42.60
2023-03-18T18:52:22.328Z,45.10
2023-03-18T18:54:50.901Z,42.60
2023-03-18T18:57:27.339Z,27.70
2023-03-18T18:59:55.851Z,44.80
2023-03-18T19:02:32.567Z,48.80
2023-03-18T19:05:02.464Z,44.30
2023-03-18T19:07:34.008Z,32.70
2023-03-18T19:10:05.346Z,31.30
2023-03-18T19:12:33.728Z,28.80
2023-03-18T19:15:10.232Z,25.40
2023-03-18T19:17:41.185Z,31.30
2023-03-18T19:20:26.282Z,30.40
2023-03-18T19:22:54.492Z,32.30
2023-03-18T19:25:25.460Z,25.30
2023-03-18T19:27:54.128Z,28.60
2023-03-18T19:30:23.860Z,35.20
2023-03-18T19:32:52.411Z,32.80
2023-03-18T19:35:20.620Z,41.30
2023-03-18T19:37:48.853Z,30.50
2023-03-18T19:40:29.505Z,34.10
2023-03-18T19:42:58.217Z,39.40
2023-03-18T19:45:29.621Z,48.70
2023-03-18T19:48:03.896Z,36.20
2023-03-18T19:50:32.084Z,37.00
2023-03-18T19:53:10.025Z,44.70
2023-03-18T19:55:38.260Z,55.60
2023-03-18T19:58:07.881Z,44.90
2023-03-18T20:00:36.892Z,61.10
2023-03-18T20:03:11.746Z,58.80
2023-03-18T20:05:45.843Z,75.40
2023-03-18T20:08:15.030Z,83.40
2023-03-18T20:10:43.956Z,67.80
2023-03-18T20:13:20.393Z,79.40
2023-03-18T20:15:50.960Z,65.80
2023-03-18T20:18:20.344Z,54.20
2023-03-18T20:20:55.482Z,60.20
2023-03-18T20:23:28.688Z,65.30
2023-03-18T20:25:57.279Z,61.80
2023-03-18T20:28:26.300Z,61.70
2023-03-18T20:30:56.517Z,59.60
2023-03-18T20:33:27.371Z,64.00
2023-03-18T20:35:55.579Z,73.40
2023-03-18T20:38:30.228Z,61.10
2023-03-18T20:41:00.007Z,52.90
2023-03-18T20:43:28.849Z,59.90
2023-03-18T20:45:58.623Z,66.70
2023-03-18T20:48:28.100Z,63.30
2023-03-18T20:50:56.328Z,76.50
2023-03-18T20:53:25.951Z,75.60
2023-03-18T20:55:54.137Z,69.30
2023-03-18T20:58:25.633Z,74.40
2023-03-18T21:00:54.534Z,71.10
2023-03-18T21:03:30.852Z,70.00
2023-03-18T21:06:09.242Z,70.10
2023-03-18T21:08:53.474Z,70.80
2023-03-18T21:11:29.845Z,82.50
2023-03-18T21:13:58.370Z,83.60
2023-03-18T21:16:31.652Z,80.70
2023-03-18T21:19:00.135Z,69.80
2023-03-18T21:21:38.459Z,101.90
2023-03-18T21:24:26.840Z,97.70
2023-03-18T21:27:04.763Z,72.40
2023-03-18T21:29:34.188Z,65.10
2023-03-18T21:32:05.402Z,101.40
2023-03-18T21:34:36.497Z,100.40
2023-03-18T21:37:14.295Z,76.60
2023-03-18T21:39:43.294Z,81.10
2023-03-18T21:42:30.019Z,102.20
2023-03-18T21:44:58.248Z,113.10
2023-03-18T21:47:26.859Z,51.80
2023-03-18T21:49:56.838Z,57.40
2023-03-18T21:52:35.541Z,57.70
2023-03-18T21:55:04.559Z,61.30
2023-03-18T21:57:33.341Z,53.00
2023-03-18T22:00:02.562Z,52.00
2023-03-18T22:02:38.832Z,63.20
2023-03-18T22:05:21.936Z,52.80
2023-03-18T22:07:54.061Z,60.70
2023-03-18T22:10:23.316Z,61.70
2023-03-18T22:12:51.438Z,56.00
2023-03-18T22:15:25.574Z,54.80
2023-03-18T22:17:55.206Z,57.80
2023-03-18T22:20:23.502Z,65.90
2023-03-18T22:22:56.108Z,70.50
2023-03-18T22:25:37.077Z,37.60
2023-03-18T22:28:05.740Z,32.00
2023-03-18T22:30:34.375Z,31.50
2023-03-18T22:33:02.737Z,30.50
2023-03-18T22:38:01.673Z,29.40
2023-03-18T22:40:31.292Z,22.20
2023-03-18T22:43:00.889Z,21.10
2023-03-18T22:45:30.091Z,52.10
2023-03-18T22:47:59.692Z,31.90
2023-03-18T22:50:29.796Z,23.80
2023-03-18T22:53:02.244Z,38.60
2023-03-18T22:55:35.027Z,21.60
2023-03-18T22:58:04.036Z,35.90
2023-03-18T23:00:42.026Z,33.20
2023-03-18T23:03:19.249Z,45.60
2023-03-18T23:05:48.198Z,52.70
2023-03-18T23:08:16.613Z,59.80
2023-03-18T23:10:45.077Z,53.70
2023-03-18T23:13:38.586Z,83.20
2023-03-18T23:16:09.338Z,83.50
2023-03-18T23:18:38.034Z,84.90
2023-03-18T23:21:14.475Z,81.40
2023-03-18T23:23:43.841Z,72.60
2023-03-18T23:26:11.984Z,99.60
2023-03-18T23:28:44.776Z,92.60
2023-03-18T23:31:14.428Z,113.50
2023-03-18T23:33:42.840Z,133.20
2023-03-18T23:36:11.249Z,141.00
2023-03-18T23:38:45.015Z,114.00
2023-03-18T23:41:13.148Z,134.50
2023-03-18T23:43:50.903Z,125.90
2023-03-18T23:46:19.601Z,119.50
2023-03-18T23:48:48.163Z,94.70
2023-03-18T23:51:16.364Z,90.40
2023-03-18T23:53:46.126Z,99.50
2023-03-18T23:56:17.396Z,99.80
2023-03-18T23:58:46.868Z,104.70
